createdAt,value
2023-04-24T00:00:10.701Z,13.55
2023-04-24T00:01:13.413Z,13.89
2023-04-24T00:02:15.571Z,12.87
2023-04-24T00:03:18.272Z,13.59
2023-04-24T00:04:20.505Z,13.65
2023-04-24T00:05:22.990Z,13.62
2023-04-24T00:06:26.501Z,13.13
2023-04-24T00:07:29.376Z,13.76
2023-04-24T00:08:31.255Z,13.98
2023-04-24T00:09:35.122Z,13.00
2023-04-24T00:10:37.142Z,13.89
2023-04-24T00:11:39.003Z,13.97
2023-04-24T00:12:40.867Z,14.09
2023-04-24T00:13:44.997Z,14.05
2023-04-24T00:14:47.023Z,14.21
2023-04-24T00:15:48.886Z,13.60
2023-04-24T00:16:50.988Z,13.87
2023-04-24T00:17:53.096Z,13.67
2023-04-24T00:18:55.318Z,12.49
2023-04-24T00:19:57.783Z,13.67
2023-04-24T00:20:59.959Z,13.81
2023-04-24T00:22:03.087Z,14.13
2023-04-24T00:23:04.974Z,13.86
2023-04-24T00:24:07.198Z,13.31
2023-04-24T00:25:09.191Z,13.33
2023-04-24T00:26:11.370Z,13.10
2023-04-24T00:27:13.430Z,14.04
2023-04-24T00:28:15.349Z,13.58
2023-04-24T00:29:17.190Z,13.50
2023-04-24T00:30:19.762Z,13.93
2023-04-24T00:31:21.732Z,13.44
2023-04-24T00:32:23.650Z,14.06
2023-04-24T00:33:25.790Z,13.90
2023-04-24T00:34:27.769Z,13.31
2023-04-24T00:35:29.644Z,13.17
2023-04-24T00:36:31.609Z,13.09
2023-04-24T00:37:33.547Z,13.37
2023-04-24T00:38:35.527Z,14.39
2023-04-24T00:39:37.383Z,13.15
2023-04-24T00:40:39.695Z,13.09
2023-04-24T00:41:42.340Z,13.27
2023-04-24T00:42:44.706Z,12.88
2023-04-24T00:43:46.588Z,14.43
2023-04-24T00:44:48.829Z,13.11
2023-04-24T00:45:50.853Z,14.45
2023-04-24T00:46:54.394Z,14.37
2023-04-24T00:47:57.112Z,14.77
2023-04-24T00:48:59.843Z,14.95
2023-04-24T00:50:06.936Z,14.38
2023-04-24T00:51:08.947Z,13.14
2023-04-24T00:52:10.815Z,13.13
2023-04-24T00:53:12.774Z,13.35
2023-04-24T00:54:15.112Z,14.71
2023-04-24T00:55:17.884Z,14.57
2023-04-24T00:56:20.056Z,14.06
2023-04-24T00:57:22.195Z,13.70
2023-04-24T00:58:24.757Z,13.63
2023-04-24T00:59:27.331Z,14.38
2023-04-24T01:00:29.393Z,14.66
2023-04-24T01:01:31.981Z,13.45
2023-04-24T01:02:34.203Z,12.81
2023-04-24T01:03:36.645Z,12.64
2023-04-24T01:04:39.894Z,13.21
2023-04-24T01:05:42.682Z,13.73
2023-04-24T01:06:46.168Z,13.87
2023-04-24T01:07:48.388Z,13.20
2023-04-24T01:08:50.447Z,14.07
2023-04-24T01:09:52.514Z,13.36
2023-04-24T01:10:57.190Z,14.11
2023-04-24T01:11:59.090Z,14.06
2023-04-24T01:13:01.055Z,13.64
2023-04-24T01:14:03.091Z,14.04
2023-04-24T01:15:06.000Z,14.27
2023-04-24T01:16:09.023Z,13.98
2023-04-24T01:17:11.291Z,13.69
2023-04-24T01:18:13.979Z,14.27
2023-04-24T01:19:18.483Z,14.38
2023-04-24T01:20:21.365Z,14.89
2023-04-24T01:21:25.998Z,13.98
2023-04-24T01:22:28.144Z,15.21
2023-04-24T01:23:30.236Z,14.41
2023-04-24T01:24:32.112Z,14.13
2023-04-24T01:25:34.877Z,14.38
2023-04-24T01:26:36.851Z,14.08
2023-04-24T01:27:38.849Z,14.05
2023-04-24T01:28:41.006Z,14.89
2023-04-24T01:29:43.402Z,14.51
2023-04-24T01:30:46.129Z,13.97
2023-04-24T01:31:48.360Z,14.79
2023-04-24T01:32:51.344Z,14.59
2023-04-24T01:33:55.040Z,14.47
2023-04-24T01:34:58.016Z,13.86
2023-04-24T01:36:00.194Z,15.19
2023-04-24T01:37:02.171Z,13.81
2023-04-24T01:38:04.810Z,15.17
2023-04-24T01:39:06.914Z,14.65
2023-04-24T01:40:10.485Z,15.88
2023-04-24T01:41:13.724Z,13.67
2023-04-24T01:42:17.133Z,15.38
2023-04-24T01:43:19.628Z,14.78
2023-04-24T01:44:22.084Z,15.93
2023-04-24T01:45:24.057Z,14.94
2023-04-24T01:46:26.738Z,14.34
2023-04-24T01:47:30.216Z,14.53
2023-04-24T01:48:32.973Z,14.53
2023-04-24T01:49:35.611Z,14.29
2023-04-24T01:50:38.119Z,15.04
2023-04-24T01:51:42.592Z,15.07
2023-04-24T01:52:44.927Z,14.98
2023-04-24T01:53:46.808Z,15.97
2023-04-24T01:54:49.040Z,16.17
2023-04-24T01:55:52.072Z,15.96
2023-04-24T01:56:54.152Z,16.21
2023-04-24T01:57:56.848Z,14.87
2023-04-24T01:59:01.974Z,15.04
2023-04-24T02:00:05.661Z,15.49
2023-04-24T02:01:07.674Z,14.99
2023-04-24T02:02:10.120Z,16.30
2023-04-24T02:03:12.312Z,15.82
2023-04-24T02:04:17.000Z,15.31
2023-04-24T02:05:19.624Z,16.13
2023-04-24T02:06:21.850Z,16.09
2023-04-24T02:07:23.852Z,16.19
2023-04-24T02:08:25.828Z,16.01
2023-04-24T02:09:27.682Z,15.25
2023-04-24T02:10:29.975Z,15.69
2023-04-24T02:11:31.997Z,15.99
2023-04-24T02:12:34.102Z,16.08
2023-04-24T02:13:36.241Z,15.05
2023-04-24T02:14:38.185Z,15.67
2023-04-24T02:15:40.079Z,15.39
2023-04-24T02:16:42.647Z,16.25
2023-04-24T02:17:44.785Z,15.71
2023-04-24T02:18:46.952Z,15.89
2023-04-24T02:19:50.036Z,16.14
2023-04-24T02:20:52.216Z,16.22
2023-04-24T02:21:54.163Z,16.11
2023-04-24T02:22:56.153Z,15.77
2023-04-24T02:23:58.141Z,14.91
2023-04-24T02:25:00.202Z,15.03
2023-04-24T02:26:02.538Z,13.53
2023-04-24T02:27:04.851Z,13.47
2023-04-24T02:28:06.870Z,15.25
2023-04-24T02:29:09.020Z,15.55
2023-04-24T02:30:11.392Z,14.80
2023-04-24T02:31:13.367Z,16.23
2023-04-24T02:32:15.297Z,15.70
2023-04-24T02:33:17.230Z,15.35
2023-04-24T02:34:19.081Z,16.01
2023-04-24T02:35:20.951Z,15.25
2023-04-24T02:36:23.085Z,15.45
2023-04-24T02:37:24.942Z,15.42
2023-04-24T02:38:26.903Z,16.33
2023-04-24T02:39:28.911Z,15.23
2023-04-24T02:40:31.055Z,14.90
2023-04-24T02:41:33.002Z,15.73
2023-04-24T02:42:34.879Z,14.89
2023-04-24T02:43:36.737Z,14.07
2023-04-24T02:44:38.602Z,15.87
2023-04-24T02:45:40.721Z,15.47
2023-04-24T02:46:43.040Z,15.42
2023-04-24T02:47:45.163Z,16.29
2023-04-24T02:48:47.211Z,14.23
2023-04-24T02:49:49.062Z,15.45
2023-04-24T02:50:51.454Z,15.75
2023-04-24T02:51:53.308Z,16.21
2023-04-24T02:52:55.173Z,15.81
2023-04-24T02:53:57.275Z,16.29
2023-04-24T02:54:59.154Z,15.36
2023-04-24T02:56:01.185Z,15.29
2023-04-24T02:57:03.257Z,14.99
2023-04-24T02:58:05.242Z,15.92
2023-04-24T02:59:07.223Z,14.65
2023-04-24T03:00:10.629Z,14.97
2023-04-24T03:01:14.767Z,16.53
2023-04-24T03:02:16.858Z,16.49
2023-04-24T03:03:18.980Z,14.09
2023-04-24T03:04:21.069Z,15.70
2023-04-24T03:05:23.161Z,16.04
2023-04-24T03:06:25.434Z,15.79
2023-04-24T03:07:27.306Z,15.15
2023-04-24T03:08:29.303Z,13.85
2023-04-24T03:09:31.293Z,15.57
2023-04-24T03:10:33.349Z,14.47
2023-04-24T03:11:36.883Z,15.17
2023-04-24T03:12:39.077Z,14.76
2023-04-24T03:13:41.110Z,15.06
2023-04-24T03:14:43.277Z,15.60
2023-04-24T03:15:45.359Z,15.49
2023-04-24T03:16:47.629Z,15.67
2023-04-24T03:17:50.698Z,15.19
2023-04-24T03:18:52.693Z,14.99
2023-04-24T03:19:54.564Z,15.86
2023-04-24T03:20:57.681Z,14.47
2023-04-24T03:21:59.601Z,16.46
2023-04-24T03:23:01.444Z,15.31
2023-04-24T03:24:03.498Z,15.05
2023-04-24T03:25:06.372Z,14.24
2023-04-24T03:26:08.557Z,15.25
2023-04-24T03:27:10.416Z,15.05
2023-04-24T03:28:12.543Z,15.39
2023-04-24T03:29:14.503Z,15.65
2023-04-24T03:30:16.966Z,15.04
2023-04-24T03:31:19.076Z,15.09
2023-04-24T03:32:24.419Z,13.73
2023-04-24T03:33:26.546Z,14.76
2023-04-24T03:34:28.658Z,15.94
2023-04-24T03:35:30.549Z,15.25
2023-04-24T03:36:32.500Z,15.77
2023-04-24T03:37:34.489Z,15.87
2023-04-24T03:38:36.353Z,15.63
2023-04-24T03:39:38.212Z,14.83
2023-04-24T03:40:40.467Z,15.53
2023-04-24T03:41:42.316Z,16.34
2023-04-24T03:42:44.185Z,16.00
2023-04-24T03:43:46.070Z,15.37
2023-04-24T03:44:47.954Z,16.25
2023-04-24T03:45:49.827Z,15.63
2023-04-24T03:46:51.957Z,17.63
2023-04-24T03:47:54.795Z,16.97
2023-04-24T03:48:57.947Z,17.16
2023-04-24T03:50:00.218Z,18.39
2023-04-24T03:51:02.194Z,23.35
2023-04-24T03:52:04.105Z,18.24
2023-04-24T03:53:06.106Z,19.40
2023-04-24T03:54:08.104Z,16.73
2023-04-24T03:55:10.078Z,17.27
2023-04-24T03:56:12.254Z,15.93
2023-04-24T03:57:14.269Z,16.11
2023-04-24T03:58:16.495Z,16.02
2023-04-24T03:59:18.697Z,15.63
2023-04-24T04:00:21.050Z,17.55
2023-04-24T04:01:23.494Z,17.37
2023-04-24T04:02:25.583Z,14.76
2023-04-24T04:03:27.871Z,15.56
2023-04-24T04:04:30.175Z,16.21
2023-04-24T04:05:32.375Z,16.25
2023-04-24T04:06:34.657Z,16.62
2023-04-24T04:07:36.623Z,15.43
2023-04-24T04:08:38.520Z,15.29
2023-04-24T04:09:40.617Z,14.93
2023-04-24T04:10:43.648Z,15.49
2023-04-24T04:11:45.695Z,15.06
2023-04-24T04:12:47.544Z,14.70
2023-04-24T04:13:49.610Z,14.63
2023-04-24T04:14:51.462Z,15.89
2023-04-24T04:15:53.408Z,15.69
2023-04-24T04:16:55.519Z,15.91
2023-04-24T04:17:57.610Z,15.17
2023-04-24T04:18:59.543Z,15.63
2023-04-24T04:20:01.405Z,18.82
2023-04-24T04:21:03.555Z,18.51
2023-04-24T04:22:05.428Z,15.45
2023-04-24T04:23:07.459Z,17.65
2023-04-24T04:24:09.433Z,16.56
2023-04-24T04:25:11.397Z,15.13
2023-04-24T04:26:14.019Z,14.82
2023-04-24T04:27:16.011Z,15.77
2023-04-24T04:28:18.002Z,15.73
2023-04-24T04:29:19.881Z,15.39
2023-04-24T04:30:22.086Z,16.70
2023-04-24T04:31:24.169Z,15.85
2023-04-24T04:32:26.289Z,15.86
2023-04-24T04:33:28.487Z,16.71
2023-04-24T04:34:30.372Z,15.38
2023-04-24T04:35:32.305Z,17.21
2023-04-24T04:36:34.372Z,17.30
2023-04-24T04:37:36.318Z,16.99
2023-04-24T04:38:38.248Z,18.21
2023-04-24T04:39:40.345Z,16.54
2023-04-24T04:40:43.497Z,16.49
2023-04-24T04:41:45.366Z,16.80
2023-04-24T04:42:47.303Z,16.99
2023-04-24T04:43:49.163Z,18.03
2023-04-24T04:44:51.567Z,26.35
2023-04-24T04:45:53.613Z,25.39
2023-04-24T04:46:55.688Z,23.28
2023-04-24T04:47:57.549Z,22.73
2023-04-24T04:49:00.800Z,21.88
2023-04-24T04:50:03.545Z,19.90
2023-04-24T04:51:05.550Z,20.51
2023-04-24T04:52:07.667Z,24.25
2023-04-24T04:53:09.528Z,24.04
2023-04-24T04:54:11.467Z,37.47
2023-04-24T04:55:13.715Z,30.99
2023-04-24T04:56:16.713Z,21.99
2023-04-24T04:57:18.652Z,19.48
2023-04-24T04:58:20.603Z,18.93
2023-04-24T04:59:22.553Z,19.61
2023-04-24T05:00:25.016Z,17.97
2023-04-24T05:01:26.978Z,18.68
2023-04-24T05:02:29.003Z,17.71
2023-04-24T05:03:31.182Z,17.90
2023-04-24T05:04:33.412Z,16.65
2023-04-24T05:05:35.506Z,17.89
2023-04-24T05:06:37.680Z,17.73
2023-04-24T05:07:39.614Z,15.94
2023-04-24T05:08:41.462Z,16.42
2023-04-24T05:09:43.436Z,16.45
2023-04-24T05:10:45.813Z,16.17
2023-04-24T05:11:48.052Z,16.87
2023-04-24T05:12:49.914Z,16.57
2023-04-24T05:13:51.869Z,15.67
2023-04-24T05:14:53.713Z,19.17
2023-04-24T05:15:56.181Z,15.62
2023-04-24T05:16:58.357Z,45.63
2023-04-24T05:18:00.423Z,34.80
2023-04-24T05:19:02.380Z,24.06
2023-04-24T05:20:06.137Z,18.06
2023-04-24T05:21:08.273Z,15.60
2023-04-24T05:22:10.215Z,15.00
2023-04-24T05:23:12.075Z,15.59
2023-04-24T05:24:13.914Z,15.12
2023-04-24T05:25:16.068Z,14.67
2023-04-24T05:26:18.172Z,14.89
2023-04-24T05:27:20.729Z,15.63
2023-04-24T05:28:24.861Z,13.67
2023-04-24T05:29:26.856Z,13.30
2023-04-24T05:30:29.408Z,12.95
2023-04-24T05:31:31.399Z,12.19
2023-04-24T05:32:33.373Z,12.09
2023-04-24T05:33:35.409Z,10.96
2023-04-24T05:34:37.484Z,10.95
2023-04-24T05:35:41.180Z,10.11
2023-04-24T05:36:43.311Z,9.63
2023-04-24T05:37:45.201Z,9.83
2023-04-24T05:38:47.180Z,8.42
2023-04-24T05:39:49.162Z,9.32
2023-04-24T05:40:51.116Z,9.54
2023-04-24T05:41:52.974Z,9.11
2023-04-24T05:42:55.963Z,9.12
2023-04-24T05:43:57.887Z,7.99
2023-04-24T05:44:59.854Z,7.60
2023-04-24T05:46:01.988Z,8.11
2023-04-24T05:47:04.177Z,7.23
2023-04-24T05:48:06.475Z,6.17
2023-04-24T05:49:09.613Z,5.46
2023-04-24T05:50:12.303Z,4.15
2023-04-24T05:51:14.262Z,5.38
2023-04-24T05:52:16.206Z,4.43
2023-04-24T05:53:21.008Z,3.75
2023-04-24T05:54:22.903Z,4.09
2023-04-24T05:55:26.020Z,4.08
2023-04-24T05:56:28.117Z,4.06
2023-04-24T05:57:30.084Z,4.25
2023-04-24T05:58:31.971Z,4.47
2023-04-24T05:59:36.511Z,4.59
2023-04-24T06:00:38.983Z,4.82
2023-04-24T06:01:40.992Z,5.09
2023-04-24T06:02:43.113Z,4.37
2023-04-24T06:03:45.216Z,4.05
2023-04-24T06:04:47.398Z,3.98
2023-04-24T06:05:51.128Z,4.12
2023-04-24T06:06:53.233Z,4.29
2023-04-24T06:07:55.106Z,3.76
2023-04-24T06:08:57.039Z,4.25
2023-04-24T06:09:58.996Z,4.47
2023-04-24T06:11:03.272Z,4.01
2023-04-24T06:12:05.307Z,4.07
2023-04-24T06:13:07.222Z,4.12
2023-04-24T06:14:09.174Z,3.63
2023-04-24T06:15:11.510Z,3.65
2023-04-24T06:16:13.829Z,3.68
2023-04-24T06:17:16.279Z,3.70
2023-04-24T06:18:18.194Z,4.41
2023-04-24T06:19:20.152Z,3.89
2023-04-24T06:20:22.596Z,4.18
2023-04-24T06:21:24.492Z,4.39
2023-04-24T06:22:26.447Z,4.13
2023-04-24T06:23:28.306Z,3.53
2023-04-24T06:24:30.400Z,3.54
2023-04-24T06:25:32.721Z,3.31
2023-04-24T06:26:34.878Z,3.58
2023-04-24T06:27:36.749Z,3.81
2023-04-24T06:28:39.558Z,3.92
2023-04-24T06:29:41.912Z,3.41
2023-04-24T06:30:44.819Z,3.14
2023-04-24T06:31:46.811Z,3.41
2023-04-24T06:32:48.895Z,4.09
2023-04-24T06:33:50.909Z,3.43
2023-04-24T06:34:52.862Z,2.77
2023-04-24T06:35:54.739Z,2.69
2023-04-24T06:36:57.199Z,2.51
2023-04-24T06:37:59.198Z,2.39
2023-04-24T06:39:01.388Z,2.17
2023-04-24T06:40:06.006Z,2.67
2023-04-24T06:41:08.284Z,2.35
2023-04-24T06:42:10.177Z,2.09
2023-04-24T06:43:12.864Z,1.97
2023-04-24T06:44:14.832Z,2.59
2023-04-24T06:45:16.836Z,2.23
2023-04-24T06:46:20.431Z,1.78
2023-04-24T06:47:22.918Z,1.69
2023-04-24T06:48:26.209Z,1.55
2023-04-24T06:49:28.080Z,1.86
2023-04-24T06:50:30.281Z,1.63
2023-04-24T06:51:32.221Z,1.92
2023-04-24T06:52:34.083Z,1.63
2023-04-24T06:53:35.931Z,1.71
2023-04-24T06:54:37.812Z,2.11
2023-04-24T06:55:40.375Z,1.53
2023-04-24T06:56:42.573Z,1.47
2023-04-24T06:57:44.706Z,1.65
2023-04-24T06:58:46.857Z,1.84
2023-04-24T06:59:48.825Z,1.77
2023-04-24T07:00:50.893Z,1.77
2023-04-24T07:01:55.188Z,1.98
2023-04-24T07:02:56.681Z,1.89
2023-04-24T07:03:58.743Z,1.96
2023-04-24T07:05:00.734Z,2.08
2023-04-24T07:06:03.273Z,1.94
2023-04-24T07:07:05.165Z,1.95
2023-04-24T07:08:07.037Z,2.03
2023-04-24T07:09:08.966Z,1.71
2023-04-24T07:10:11.468Z,1.75
2023-04-24T07:11:13.435Z,1.97
2023-04-24T07:12:15.305Z,1.77
2023-04-24T07:13:17.335Z,1.76
2023-04-24T07:14:20.049Z,1.86
2023-04-24T07:15:22.348Z,1.51
2023-04-24T07:16:24.675Z,1.56
2023-04-24T07:17:26.623Z,1.51
2023-04-24T07:18:28.530Z,2.05
2023-04-24T07:19:30.393Z,1.61
2023-04-24T07:20:32.651Z,1.57
2023-04-24T07:21:34.818Z,1.62
2023-04-24T07:22:38.734Z,1.27
2023-04-24T07:23:40.647Z,1.49
2023-04-24T07:24:45.022Z,1.20
2023-04-24T07:25:46.929Z,0.98
2023-04-24T07:26:49.009Z,1.39
2023-04-24T07:27:51.050Z,1.27
2023-04-24T07:28:53.104Z,1.26
2023-04-24T07:29:55.057Z,1.11
2023-04-24T07:30:57.927Z,1.14
2023-04-24T07:32:00.995Z,1.33
2023-04-24T07:33:03.688Z,1.19
2023-04-24T07:34:05.629Z,1.20
2023-04-24T07:35:08.628Z,1.14
2023-04-24T07:36:10.784Z,2.02
2023-04-24T07:37:12.862Z,1.24
2023-04-24T07:38:14.998Z,1.45
2023-04-24T07:39:16.895Z,1.77
2023-04-24T07:40:20.508Z,1.57
2023-04-24T07:41:24.954Z,1.49
2023-04-24T07:42:26.816Z,1.13
2023-04-24T07:43:29.468Z,1.39
2023-04-24T07:44:31.453Z,1.52
2023-04-24T07:45:33.331Z,1.46
2023-04-24T07:46:35.470Z,1.55
2023-04-24T07:47:37.766Z,1.19
2023-04-24T07:48:39.761Z,1.15
2023-04-24T07:49:42.560Z,1.27
2023-04-24T07:50:45.256Z,1.50
2023-04-24T07:51:47.269Z,1.79
2023-04-24T07:52:49.340Z,1.39
2023-04-24T07:53:51.298Z,1.85
2023-04-24T07:54:53.171Z,1.51
2023-04-24T07:55:56.867Z,1.81
2023-04-24T07:56:59.127Z,1.83
2023-04-24T07:58:01.132Z,1.72
2023-04-24T07:59:03.063Z,1.71
2023-04-24T08:00:06.730Z,1.35
2023-04-24T08:01:08.613Z,1.34
2023-04-24T08:02:10.984Z,1.39
2023-04-24T08:03:13.530Z,1.05
2023-04-24T08:04:15.870Z,1.24
2023-04-24T08:05:18.234Z,1.24
2023-04-24T08:06:20.361Z,1.98
2023-04-24T08:07:24.237Z,1.71
2023-04-24T08:08:28.281Z,1.24
2023-04-24T08:09:30.319Z,1.60
2023-04-24T08:10:32.516Z,1.39
2023-04-24T08:11:34.504Z,1.21
2023-04-24T08:12:37.387Z,1.29
2023-04-24T08:13:39.388Z,1.36
2023-04-24T08:14:41.798Z,1.22
2023-04-24T08:15:43.970Z,1.01
2023-04-24T08:16:46.876Z,1.45
2023-04-24T08:17:49.016Z,1.13
2023-04-24T08:18:51.244Z,1.08
2023-04-24T08:19:53.152Z,1.25
2023-04-24T08:20:55.719Z,1.16
2023-04-24T08:21:57.608Z,1.31
2023-04-24T08:22:59.614Z,1.23
2023-04-24T08:24:01.602Z,1.31
2023-04-24T08:25:04.401Z,1.27
2023-04-24T08:26:06.588Z,1.14
2023-04-24T08:27:09.170Z,1.13
2023-04-24T08:28:11.202Z,1.16
2023-04-24T08:29:13.282Z,1.26
2023-04-24T08:30:15.606Z,1.20
2023-04-24T08:31:17.504Z,1.36
2023-04-24T08:32:19.791Z,1.87
2023-04-24T08:33:24.342Z,1.45
2023-04-24T08:34:26.337Z,1.19
2023-04-24T08:35:28.207Z,1.99
2023-04-24T08:36:40.047Z,1.71
2023-04-24T08:37:34.380Z,1.53
2023-04-24T08:38:36.529Z,1.99
2023-04-24T08:39:38.629Z,1.51
2023-04-24T08:40:41.596Z,1.41
2023-04-24T08:41:44.227Z,1.43
2023-04-24T08:42:46.354Z,1.28
2023-04-24T08:43:49.212Z,1.58
2023-04-24T08:44:51.437Z,1.35
2023-04-24T08:45:57.224Z,1.43
2023-04-24T08:47:00.820Z,1.27
2023-04-24T08:48:04.896Z,1.26
2023-04-24T08:49:07.035Z,1.31
2023-04-24T08:50:10.107Z,1.12
2023-04-24T08:51:12.088Z,1.53
2023-04-24T08:52:13.974Z,1.16
2023-04-24T08:53:18.032Z,1.23
2023-04-24T08:54:21.520Z,1.15
2023-04-24T08:55:25.109Z,1.40
2023-04-24T08:56:28.955Z,1.33
2023-04-24T08:57:32.700Z,1.50
2023-04-24T08:58:36.342Z,1.19
2023-04-24T08:59:39.003Z,1.52
2023-04-24T09:00:41.799Z,1.19
2023-04-24T09:01:45.715Z,1.49
2023-04-24T09:02:50.485Z,1.24
2023-04-24T09:03:55.231Z,1.45
2023-04-24T09:04:58.216Z,1.27
2023-04-24T09:06:01.666Z,1.24
2023-04-24T09:07:06.328Z,1.49
2023-04-24T09:08:08.681Z,1.02
2023-04-24T09:09:11.479Z,1.20
2023-04-24T09:10:14.138Z,1.18
2023-04-24T09:11:17.253Z,1.13
2023-04-24T09:12:19.544Z,0.93
2023-04-24T09:13:21.708Z,1.17
2023-04-24T09:14:24.362Z,1.63
2023-04-24T09:15:26.617Z,1.17
2023-04-24T09:16:29.240Z,1.38
2023-04-24T09:17:32.591Z,1.25
2023-04-24T09:18:34.531Z,1.33
2023-04-24T09:19:39.095Z,1.43
2023-04-24T09:21:02.912Z,1.37
2023-04-24T09:22:06.205Z,1.26
2023-04-24T09:23:08.117Z,1.44
2023-04-24T09:25:45.757Z,1.36
2023-04-24T09:26:49.315Z,1.05
2023-04-24T09:27:54.044Z,1.36
2023-04-24T09:28:55.916Z,1.44
2023-04-24T09:29:58.791Z,1.62
2023-04-24T09:31:13.803Z,1.31
2023-04-24T09:32:20.132Z,1.43
2023-04-24T09:33:22.105Z,3.05
2023-04-24T09:34:26.715Z,1.12
2023-04-24T09:35:28.684Z,0.87
2023-04-24T09:36:40.303Z,1.45
2023-04-24T09:37:44.890Z,1.12
2023-04-24T09:38:46.880Z,0.97
2023-04-24T09:39:52.684Z,1.00
2023-04-24T09:40:54.892Z,1.06
2023-04-24T09:41:57.729Z,0.87
2023-04-24T09:42:59.666Z,1.54
2023-04-24T09:44:19.602Z,1.25
2023-04-24T09:45:21.765Z,1.46
2023-04-24T09:46:31.731Z,1.38
2023-04-24T09:47:39.362Z,1.33
2023-04-24T09:48:41.452Z,1.39
2023-04-24T09:49:43.636Z,1.86
2023-04-24T09:50:50.619Z,1.39
2023-04-24T09:51:54.728Z,1.56
2023-04-24T09:53:06.047Z,2.09
2023-04-24T09:54:15.077Z,1.52
2023-04-24T09:55:20.079Z,1.66
2023-04-24T09:56:25.661Z,1.66
2023-04-24T09:57:27.737Z,1.53
2023-04-24T09:58:29.906Z,1.69
2023-04-24T09:59:31.802Z,1.51
2023-04-24T10:00:34.245Z,1.33
2023-04-24T10:01:36.463Z,1.33
2023-04-24T10:02:38.789Z,1.15
2023-04-24T10:03:42.555Z,1.38
2023-04-24T10:04:55.869Z,1.17
2023-04-24T10:06:02.955Z,1.33
2023-04-24T10:07:05.578Z,1.52
2023-04-24T10:08:12.491Z,1.45
2023-04-24T10:09:15.512Z,1.62
2023-04-24T10:10:17.937Z,1.39
2023-04-24T10:11:19.992Z,1.36
2023-04-24T10:12:23.278Z,1.33
2023-04-24T10:13:25.874Z,1.07
2023-04-24T10:14:27.832Z,1.41
2023-04-24T10:15:30.872Z,1.62
2023-04-24T10:16:33.275Z,1.12
2023-04-24T10:17:36.194Z,1.19
2023-04-24T10:18:40.183Z,1.32
2023-04-24T10:19:43.634Z,1.22
2023-04-24T10:20:46.353Z,1.54
2023-04-24T10:21:48.551Z,1.53
2023-04-24T10:22:52.817Z,1.66
2023-04-24T10:23:55.462Z,1.37
2023-04-24T10:24:58.814Z,1.21
2023-04-24T10:26:00.788Z,1.41
2023-04-24T10:27:03.848Z,1.28
2023-04-24T10:28:06.690Z,1.66
2023-04-24T10:29:11.069Z,1.34
2023-04-24T10:30:14.319Z,1.53
2023-04-24T10:31:18.922Z,1.54
2023-04-24T10:32:20.912Z,1.18
2023-04-24T10:33:24.281Z,1.38
2023-04-24T10:34:26.448Z,1.32
2023-04-24T10:35:31.305Z,1.36
2023-04-24T10:36:35.366Z,1.23
2023-04-24T10:37:40.343Z,1.32
2023-04-24T10:38:45.980Z,1.18
2023-04-24T10:39:49.141Z,1.39
2023-04-24T10:40:51.117Z,1.34
2023-04-24T10:41:54.396Z,1.12
2023-04-24T10:42:58.716Z,1.12
2023-04-24T10:44:09.478Z,1.44
2023-04-24T10:45:22.261Z,1.30
2023-04-24T10:46:28.158Z,1.22
2023-04-24T10:47:30.495Z,1.35
2023-04-24T10:48:34.558Z,1.25
2023-04-24T10:49:36.549Z,1.22
2023-04-24T10:50:47.733Z,1.56
2023-04-24T10:52:52.852Z,1.72
2023-04-24T10:53:57.962Z,1.36
2023-04-24T10:55:01.970Z,1.17
2023-04-24T10:56:09.054Z,1.45
2023-04-24T10:57:28.062Z,1.57
2023-04-24T10:58:42.343Z,1.36
2023-04-24T10:59:45.463Z,1.38
2023-04-24T11:01:01.225Z,2.19
2023-04-24T11:02:03.331Z,1.74
2023-04-24T11:03:26.761Z,1.75
2023-04-24T11:05:58.983Z,4.91
2023-04-24T11:07:02.922Z,4.67
2023-04-24T11:08:13.508Z,1.73
2023-04-24T11:09:15.965Z,1.63
2023-04-24T11:10:27.648Z,1.65
2023-04-24T11:11:30.659Z,1.47
2023-04-24T11:12:37.864Z,1.48
2023-04-24T11:13:58.602Z,1.46
2023-04-24T11:15:02.180Z,1.69
2023-04-24T11:16:16.968Z,2.15
2023-04-24T11:17:37.398Z,1.31
2023-04-24T11:18:43.273Z,1.54
2023-04-24T11:19:48.927Z,1.62
2023-04-24T11:20:52.933Z,1.38
2023-04-24T11:21:58.465Z,1.24
2023-04-24T11:23:04.197Z,1.07
2023-04-24T11:25:43.750Z,1.47
2023-04-24T11:26:45.718Z,0.81
2023-04-24T11:27:47.771Z,1.01
2023-04-24T11:28:51.135Z,1.91
2023-04-24T11:29:59.993Z,1.36
2023-04-24T11:31:22.897Z,1.43
2023-04-24T11:32:42.124Z,1.77
2023-04-24T11:33:44.558Z,1.63
2023-04-24T11:34:49.333Z,1.19
2023-04-24T11:35:51.947Z,1.54
2023-04-24T11:36:54.066Z,1.27
2023-04-24T11:39:00.822Z,1.52
2023-04-24T11:40:04.684Z,1.20
2023-04-24T11:41:06.968Z,1.43
2023-04-24T11:42:15.345Z,1.28
2023-04-24T11:43:20.084Z,1.12
2023-04-24T11:44:24.769Z,1.00
2023-04-24T11:45:29.180Z,1.27
2023-04-24T11:46:32.670Z,1.65
2023-04-24T11:47:34.860Z,0.88
2023-04-24T11:48:37.017Z,0.96
2023-04-24T11:49:39.010Z,1.03
2023-04-24T11:50:45.048Z,1.21
2023-04-24T11:51:53.020Z,0.80
2023-04-24T11:52:50.911Z,0.92
2023-04-24T11:54:03.518Z,1.29
2023-04-24T11:55:00.518Z,1.15
2023-04-24T11:56:04.414Z,1.45
2023-04-24T11:57:06.527Z,1.19
2023-04-24T11:58:08.408Z,1.33
2023-04-24T11:59:10.449Z,1.40
2023-04-24T12:00:18.144Z,1.19
2023-04-24T12:01:20.496Z,1.56
2023-04-24T12:02:25.290Z,1.17
2023-04-24T12:03:27.881Z,1.57
2023-04-24T12:04:35.587Z,1.37
2023-04-24T12:05:39.052Z,1.39
2023-04-24T12:07:02.141Z,1.62
2023-04-24T12:08:04.447Z,1.46
2023-04-24T12:09:17.868Z,1.63
2023-04-24T12:10:11.182Z,1.85
2023-04-24T12:11:15.918Z,1.79
2023-04-24T12:12:19.135Z,1.01
2023-04-24T12:13:21.869Z,1.59
2023-04-24T12:14:24.534Z,0.94
2023-04-24T12:15:27.654Z,1.48
2023-04-24T12:16:29.883Z,1.61
2023-04-24T12:17:33.892Z,1.29
2023-04-24T12:18:44.301Z,1.61
2023-04-24T12:19:47.912Z,1.36
2023-04-24T12:20:50.630Z,1.37
2023-04-24T12:22:04.453Z,1.73
2023-04-24T12:23:06.368Z,1.39
2023-04-24T12:24:08.356Z,1.46
2023-04-24T12:25:11.267Z,1.45
2023-04-24T12:27:31.446Z,1.69
2023-04-24T12:28:38.243Z,1.60
2023-04-24T12:29:58.104Z,1.41
2023-04-24T12:31:01.603Z,1.63
2023-04-24T12:32:03.757Z,1.47
2023-04-24T12:33:05.845Z,2.96
2023-04-24T12:34:21.738Z,1.81
2023-04-24T12:35:25.128Z,1.57
2023-04-24T12:36:27.241Z,1.76
2023-04-24T12:37:32.871Z,1.38
2023-04-24T12:38:34.821Z,1.89
2023-04-24T12:39:36.687Z,2.02
2023-04-24T12:40:39.456Z,1.57
2023-04-24T12:41:50.813Z,2.47
2023-04-24T12:42:52.721Z,2.74
2023-04-24T12:43:54.734Z,2.12
2023-04-24T12:44:59.699Z,2.93
2023-04-24T12:46:02.286Z,1.99
2023-04-24T12:47:04.312Z,2.60
2023-04-24T12:48:06.336Z,2.16
2023-04-24T12:49:08.246Z,1.97
2023-04-24T12:50:12.539Z,1.83
2023-04-24T12:51:14.529Z,2.25
2023-04-24T12:52:16.532Z,1.80
2023-04-24T12:53:18.383Z,1.65
2023-04-24T12:54:20.258Z,1.14
2023-04-24T12:55:22.605Z,1.47
2023-04-24T12:56:24.884Z,1.39
2023-04-24T12:57:29.885Z,1.61
2023-04-24T12:58:31.893Z,1.82
2023-04-24T12:59:33.780Z,1.43
2023-04-24T13:00:36.348Z,1.63
2023-04-24T13:01:38.515Z,1.59
2023-04-24T13:02:40.619Z,1.52
2023-04-24T13:03:43.053Z,1.71
2023-04-24T13:04:49.299Z,1.59
2023-04-24T13:05:51.440Z,1.32
2023-04-24T13:06:54.230Z,2.36
2023-04-24T13:07:57.621Z,1.20
2023-04-24T13:09:00.425Z,1.55
2023-04-24T13:10:02.792Z,1.28
2023-04-24T13:11:04.882Z,1.29
2023-04-24T13:12:08.002Z,1.28
2023-04-24T13:13:09.954Z,1.22
2023-04-24T13:14:11.795Z,1.55
2023-04-24T13:15:13.751Z,1.51
2023-04-24T13:16:15.862Z,1.25
2023-04-24T13:17:17.892Z,1.41
2023-04-24T13:18:19.974Z,1.41
2023-04-24T13:19:22.125Z,1.39
2023-04-24T13:20:25.482Z,1.16
2023-04-24T13:21:27.503Z,1.28
2023-04-24T13:22:29.557Z,1.29
2023-04-24T13:23:31.487Z,1.43
2023-04-24T13:24:33.657Z,1.12
2023-04-24T13:25:36.727Z,1.53
2023-04-24T13:26:38.876Z,1.31
2023-04-24T13:27:40.714Z,1.37
2023-04-24T13:28:42.679Z,1.54
2023-04-24T13:29:44.939Z,1.35
2023-04-24T13:30:47.033Z,1.47
2023-04-24T13:31:51.273Z,1.60
2023-04-24T13:32:53.535Z,1.88
2023-04-24T13:33:55.590Z,1.57
2023-04-24T13:34:57.439Z,2.23
2023-04-24T13:35:59.452Z,1.89
2023-04-24T13:37:02.098Z,1.75
2023-04-24T13:38:04.240Z,1.85
2023-04-24T13:39:06.536Z,1.31
2023-04-24T13:40:10.331Z,1.40
2023-04-24T13:41:12.248Z,1.86
2023-04-24T13:42:14.643Z,2.01
2023-04-24T13:43:17.114Z,1.62
2023-04-24T13:44:20.669Z,1.59
2023-04-24T13:45:25.639Z,1.47
2023-04-24T13:46:26.693Z,1.58
2023-04-24T13:47:28.676Z,1.91
2023-04-24T13:48:30.802Z,1.45
2023-04-24T13:49:32.689Z,1.71
2023-04-24T13:50:34.878Z,1.83
2023-04-24T13:51:36.755Z,1.57
2023-04-24T13:52:38.638Z,2.19
2023-04-24T13:53:40.581Z,1.78
2023-04-24T13:54:42.774Z,1.74
2023-04-24T13:55:44.750Z,1.75